ADDS METAR Data INFO
IDs: Format: Raw Decoded Include TAF

Data at: 0644 UTC 23 Feb 2018

KDVP 230639Z AUTO 22006KT 7SM BKN065 OVC075 M04/M05 A3007 RMK AO2 T10411046
KDVP 230617Z AUTO 22004KT 2 1/2SM -SN SCT008 BKN040 OVC065 M04/M05 A3009 RMK AO2 T10431048
KDVP 230558Z AUTO 21004KT 3SM -SN SCT017 BKN040 OVC055 M04/M05 A3011 RMK AO2 60002 T10431047 11041 21055 410411146
KDVP 230538Z AUTO 00000KT 4SM -SN OVC055 M04/M05 A3011 RMK AO2 T10421046
KDVP 230517Z AUTO 16003KT 4SM -SN SCT047 BKN050 OVC070 M04/M05 A3011 RMK AO2 T10421046
KDVP 230458Z AUTO 15004KT 2SM -SN SCT022 BKN047 OVC055 M04/M05 A3012 RMK AO2 T10421046
KDVP 230438Z AUTO 13005KT 2SM -SN SCT008 BKN016 OVC049 M04/M05 A3013 RMK AO2 T10421047
KDVP 230417Z AUTO 13005KT 1 1/2SM -SN OVC008 M04/M05 A3014 RMK AO2 T10421047
KDVP 230358Z AUTO 11005KT 1 1/2SM -SN OVC010 M04/M05 A3014 RMK AO2 P0001 T10431047
KDVP 230337Z AUTO 11003KT 1 1/2SM -SN BKN007 OVC013 M04/M05 A3015 RMK AO2 P0001 T10431048
KDVP 230317Z AUTO 11003KT 1SM -SN OVC007 M04/M05 A3016 RMK AO2 T10421047
KDVP 230258Z AUTO 11004KT 1 1/4SM -SN OVC007 M04/M05 A3016 RMK AO2 60001 T10431047
KDVP 230237Z AUTO 13005KT 1 1/4SM -SN BKN009 OVC012 M04/M05 A3017 RMK AO2 T10431048
KDVP 230217Z AUTO 12005KT 2SM -SN OVC009 M04/M05 A3017 RMK AO2 T10411046
KDVP 230158Z AUTO 11007KT 1 1/2SM -SN OVC010 M04/M05 A3017 RMK AO2 P0001 T10411046
KDVP 230137Z AUTO 10006KT 1 1/4SM -SN OVC006 M05/M05 A3017 RMK AO2 T10461051
KDVP 230117Z AUTO 06004KT 1SM SN OVC006 M05/M06 A3018 RMK AO2 T10511057
KDVP 230058Z AUTO 06006KT 1 1/4SM -SN OVC008 M05/M06 A3019 RMK AO2 T10531060
KDVP 230037Z AUTO 05007KT 1 3/4SM -SN BKN005 OVC008 M05/M06 A3019 RMK AO2 T10541060
KDVP 230018Z AUTO 07008KT 1 1/4SM -SN OVC006 M05/M06 A3020 RMK AO2 T10551060
KDVP 222358Z AUTO 06007KT 2 1/2SM -SN OVC006 M05/M06 A3020 RMK AO2 T10551061 11047 21057
KDVP 222338Z AUTO 07011KT 2 1/2SM BR BKN006 OVC013 M05/M06 A3020 RMK AO2 T10551060
KDVP 222317Z AUTO 06011KT 2 1/2SM BR SCT006 BKN015 OVC023 M05/M06 A3021 RMK AO2 T10551063
KDVP 222257Z AUTO 07012KT 1 1/2SM -SN SCT008 SCT019 OVC027 M05/M06 A3022 RMK AO2 T10551065
KDVP 222237Z AUTO 07012KT 2 1/2SM -SN SCT008 SCT019 OVC029 M05/M06 A3023 RMK AO2 T10551065
KDVP 222218Z AUTO 08009KT 1 1/2SM -SN SCT010 SCT016 OVC024 M05/M06 A3025 RMK AO2 T10521063
KDVP 222157Z AUTO 05009KT 1 1/4SM -SN OVC010 M05/M06 A3025 RMK AO2 T10521063
KDVP 222137Z AUTO 07010KT 1 1/4SM -SN BKN010 OVC018 M05/M06 A3027 RMK AO2 T10521064
KDVP 222118Z AUTO 05011KT 2 1/2SM -SN BKN020 OVC028 M05/M07 A3028 RMK AO2 T10541066
KDVP 222058Z AUTO 04009KT 2SM -SN SCT008 BKN022 OVC030 M05/M06 A3029 RMK AO2 VIS 1 1/4V4 T10521065
KDVP 222037Z AUTO 05009KT 1 1/2SM -SN BKN014 OVC022 M05/M06 A3031 RMK AO2 T10511065
KDVP 222017Z AUTO 07009KT 4SM -SN SCT020 BKN029 OVC038 M05/M07 A3031 RMK AO2 T10511066
KDVP 221958Z AUTO 06008KT 7SM -SN BKN038 OVC044 M05/M07 A3032 RMK AO2 T10521067
KDVP 221938Z AUTO 07011KT 2 1/2SM -SN SCT018 SCT027 OVC040 M05/M07 A3032 RMK AO2 T10491066
KDVP 221917Z AUTO 08008KT 2 1/2SM -SN SCT018 SCT027 OVC040 M05/M07 A3035 RMK AO2 VIS 2V3 T10501067
KDVP 221858Z AUTO 08009KT 5SM -SN OVC040 M05/M07 A3036 RMK AO2 T10501069
KDVP 221838Z AUTO 08007KT 10SM OVC040 M05/M07 A3039 RMK AO2 T10551070
KDVP 221818Z AUTO 09006KT 10SM OVC044 M06/M07 A3041 RMK AO2 T10561072
KDVP 221758Z AUTO 08008KT 10SM SCT006 OVC046 M06/M07 A3041 RMK AO2 T10571075 11057 21118
KDVP 221737Z AUTO 09008KT 10SM BKN006 OVC050 M06/M07 A3042 RMK AO2 T10611075
KDVP 221717Z AUTO 08008KT 10SM BKN006 OVC050 M06/M08 A3042 RMK AO2 T10611077
KDVP 221657Z AUTO 09006KT 10SM OVC006 M06/M08 A3043 RMK AO2 T10631079
KDVP 221637Z AUTO 10006KT 10SM OVC006 M07/M08 A3043 RMK AO2 T10681085
KDVP 221617Z AUTO 09005KT 10SM OVC008 M07/M09 A3044 RMK AO2 T10751092
KDVP 221558Z AUTO 10005KT 10SM OVC008 M08/M10 A3046 RMK AO2 T10801096
KDVP 221537Z AUTO 00000KT 2 1/2SM BR OVC010 M08/M10 A3046 RMK AO2 T10831097
KDVP 221518Z AUTO 12005KT 3/4SM -SN OVC012 M09/M10 A3047 RMK AO2 T10871100
KDVP 221458Z AUTO 11004KT 2 1/2SM -SN BKN009 OVC018 M09/M10 A3047 RMK AO2 T10871100
KDVP 221438Z AUTO 10005KT 7SM -SN SCT009 OVC020 M09/M10 A3047 RMK AO2 T10901104
KDVP 221417Z AUTO 10005KT 7SM -SN BKN022 OVC041 M09/M11 A3046 RMK AO2 T10941108
KDVP 221357Z AUTO 10005KT 7SM -SN BKN025 OVC039 M10/M11 A3046 RMK AO2 T10981113
KDVP 221337Z AUTO 12005KT 4SM -SN BKN022 OVC030 M10/M12 A3047 RMK AO2 T11041119
KDVP 221317Z AUTO 13004KT 4SM -SN BKN025 BKN032 OVC038 M11/M12 A3046 RMK AO2 T11071125
KDVP 221257Z AUTO 12007KT 5SM -SN SCT029 SCT035 OVC060 M11/M13 A3045 RMK AO2 T11081130
KDVP 221237Z AUTO 11005KT 10SM OVC060 M11/M13 A3046 RMK AO2 T11071131
KDVP 221218Z AUTO 11006KT 10SM BKN060 OVC120 M11/M13 A3046 RMK AO2 T11101135
KDVP 221158Z AUTO 10004KT 10SM SCT060 OVC120 M12/M14 A3047 RMK AO2 T11191137 11115 21146
KDVP 221138Z AUTO 00000KT 10SM BKN060 BKN070 BKN120 M12/M14 A3048 RMK AO2 T11231142
KDVP 221118Z AUTO 10003KT 10SM BKN060 OVC070 M12/M14 A3048 RMK AO2 T11191138
KDVP 221057Z AUTO 00000KT 10SM SCT075 OVC100 M12/M14 A3049 RMK AO2 T11241144
KDVP 221038Z AUTO 00000KT 10SM BKN110 M12/M14 A3049 RMK AO2 T11251143
KDVP 221018Z AUTO 13005KT 10SM SCT100 SCT120 M13/M15 A3049 RMK AO2 T11321149
KDVP 220957Z AUTO 12003KT 10SM CLR M13/M15 A3049 RMK AO2 T11271150
KDVP 220938Z AUTO 00000KT 10SM SCT110 M13/M15 A3049 RMK AO2 T11331153
KDVP 220917Z AUTO 00000KT 10SM SCT110 M12/M15 A3049 RMK AO2 T11251147
KDVP 220857Z AUTO 10003KT 10SM CLR M14/M15 A3049 RMK AO2 T11361154
KDVP 220837Z AUTO 15003KT 10SM CLR M14/M16 A3051 RMK AO2 T11421160
KDVP 220818Z AUTO 18004KT 10SM CLR M14/M16 A3051 RMK AO2 T11391160
KDVP 220757Z AUTO 19004KT 10SM CLR M14/M16 A3051 RMK AO2 T11371159
KDVP 220738Z AUTO 19004KT 10SM CLR M14/M16 A3051 RMK AO2 T11401160
KDVP 220718Z AUTO 00000KT 10SM CLR M14/M16 A3051 RMK AO2 T11421163
KDVP 220657Z AUTO 00000KT 10SM CLR M14/M16 A3051 RMK AO2 T11421164
KDVP 220638Z AUTO 14004KT 10SM CLR M13/M15 A3051 RMK AO2 T11311152
KDVP 220617Z AUTO 00000KT 10SM SCT120 M13/M15 A3051 RMK AO2 T11351153
KDVP 220558Z AUTO 12004KT 10SM BKN120 M14/M16 A3052 RMK AO2 T11421161 11117 21157 410931201
KDVP 220538Z AUTO 14004KT 10SM OVC120 M14/M16 A3052 RMK AO2 T11411162
KDVP 220517Z AUTO 14005KT 10SM BKN120 M14/M16 A3053 RMK AO2 T11411161
KDVP 220457Z AUTO 15006KT 10SM OVC120 M14/M16 A3053 RMK AO2 T11411162
KDVP 220437Z AUTO 15003KT 10SM OVC120 M14/M16 A3053 RMK AO2 T11431165
KDVP 220417Z AUTO 17003KT 10SM OVC120 M15/M17 A3054 RMK AO2 T11501170
KDVP 220358Z AUTO 16003KT 10SM OVC120 M15/M17 A3055 RMK AO2 T11481170
KDVP 220038Z AUTO 14003KT 10SM CLR M12/M16 A3056 RMK AO2 T11251156
KDVP 220018Z AUTO 15003KT 10SM CLR M12/M15 A3055 RMK AO2 T11201153
KDVP 212357Z AUTO 00000KT 10SM CLR M12/M15 A3055 RMK AO2 T11191151 11093 21120
KDVP 212337Z AUTO 00000KT 10SM CLR M11/M15 A3055 RMK AO2 T11111149
KDVP 212317Z AUTO 23003KT 10SM CLR M10/M15 A3055 RMK AO2 T11021147
KDVP 212258Z AUTO 22004KT 10SM CLR M10/M15 A3056 RMK AO2 T10971146
KDVP 212238Z AUTO 23004KT 10SM CLR M10/M15 A3056 RMK AO2 T10971152
KDVP 212218Z AUTO 23006KT 10SM CLR M10/M15 A3056 RMK AO2 T10961151
KDVP 212157Z AUTO 23007KT 10SM CLR M10/M15 A3057 RMK AO2 T10961150
KDVP 212138Z AUTO 23009KT 10SM CLR M10/M15 A3056 RMK AO2 T10971151
KDVP 212118Z AUTO 22011KT 10SM CLR M09/M15 A3056 RMK AO2 T10951150
KDVP 212057Z AUTO 22011KT 10SM CLR M09/M15 A3057 RMK AO2 T10931153
KDVP 212038Z AUTO 22009KT 10SM CLR M09/M16 A3056 RMK AO2 T10951158
KDVP 212018Z AUTO 22009KT 10SM CLR M09/M15 A3055 RMK AO2 T10951155
KDVP 211958Z AUTO 24008KT 10SM CLR M10/M16 A3056 RMK AO2 T10971162
KDVP 211937Z AUTO 24008KT 10SM CLR M10/M16 A3056 RMK AO2 T10981163
KDVP 211917Z AUTO 24008KT 10SM CLR M09/M16 A3057 RMK AO2 T10951157
KDVP 211858Z AUTO 23009KT 10SM CLR M10/M16 A3057 RMK AO2 T11011164